Bon Homme, Mississippi
Current Conditions -  °F | °C
As of 12:53 AM on Wednesday 22 Oct 2014 (Local Time) from KHBG Reporting Station
Clear Clear  
Wind Chill: 57°   Ceiling: Unl
Heat Index: 57°   Visibility: 9mi
Dew Point: 55°   Wind: 3mph
Humidity: 93%   Direction: 300°WNW
Pressure: 30.04"   Gusts: NA
Location:  31.1996°N, 89.2694°W
Report Text: KHBG 220553Z AUTO 30003KT 9SM CLR 14/13 A3004 RMK AO2 SLP172 T01390128 10189 20122 402670094 58004
Loading
Personal Weather Stations






























Interactive Weather Map
Tropical Storm Tracking
New forecast layout! Learn more

10-Day Weather Forecast

Advertisements
Track Severe Weather on mobile